Time;durP1;ratioP1;P1;durP2;ratioP2;P2;SDS_P1;SDS_P2;PMS_P1;PMS_P2;Temp;Humidity;BMP_temperature;BMP_pressure;BME280_temperature;BME280_humidity;BME280_pressure;Samples;Min_cycle;Max_cycle;Signal;HPM_P1;HPM_P2
2022/07/28 00:01:56;;;;;;;6.43;2.47;;;;;;;;;;6296392;28;20062;-61
2022/07/28 00:04:57;;;;;;;5.95;2.83;;;;;;;;;;6292637;28;20048;-61
2022/07/28 00:07:58;;;;;;;5.45;3.50;;;;;;;;;;6293761;28;20097;-60
2022/07/28 00:10:58;;;;;;;8.43;3.53;;;;;;;;;;6297326;28;20625;-60
2022/07/28 00:13:59;;;;;;;8.25;3.45;;;;;;;;;;6295949;28;20044;-61
2022/07/28 00:16:59;;;;;;;8.40;3.17;;;;;;;;;;6297600;28;20528;-61
2022/07/28 00:20:00;;;;;;;9.98;3.47;;;;;;;;;;6292931;28;20051;-61
2022/07/28 00:23:01;;;;;;;6.45;3.30;;;;;;;;;;6296085;28;20056;-61
2022/07/28 00:26:01;;;;;;;6.83;3.30;;;;;;;;;;6294113;28;20491;-61
2022/07/28 00:29:03;;;;;;;8.77;3.22;;;;;;;;;;6295923;28;20044;-61
2022/07/28 00:32:04;;;;;;;6.40;3.47;;;;;;;;;;6295841;28;20056;-61
2022/07/28 00:35:05;;;;;;;8.17;3.27;;;;;;;;;;6292688;28;20058;-60
2022/07/28 00:38:07;;;;;;;6.55;2.78;;;;;;;;;;6291109;28;20078;-62
2022/07/28 00:41:11;;;;;;;7.25;2.80;;;;;;;;;;6294282;28;20098;-61
2022/07/28 00:44:11;;;;;;;5.20;3.33;;;;;;;;;;6288210;28;20484;-60
2022/07/28 00:47:12;;;;;;;8.45;3.08;;;;;;;;;;6292847;28;20047;-61
2022/07/28 00:50:12;;;;;;;7.30;3.13;;;;;;;;;;6297580;28;20048;-60
2022/07/28 00:53:13;;;;;;;6.05;2.67;;;;;;;;;;6295777;28;20045;-61
2022/07/28 00:56:15;;;;;;;8.97;3.00;;;;;;;;;;6294578;28;20043;-61
2022/07/28 00:59:15;;;;;;;5.75;2.83;;;;;;;;;;6293912;28;21149;-61
2022/07/28 01:02:16;;;;;;;5.77;2.73;;;;;;;;;;6296953;28;20056;-61
2022/07/28 01:05:17;;;;;;;6.68;2.78;;;;;;;;;;6295477;28;20043;-61
2022/07/28 01:08:40;;;;;;;6.03;2.78;;;;;;;;;;6293662;28;20594;-60
2022/07/28 01:12:10;;;;;;;5.88;2.80;;;;;;;;;;6294700;28;20071;-61
2022/07/28 01:15:42;;;;;;;4.22;2.42;;;;;;;;;;6279667;28;20471;-60
2022/07/28 01:19:03;;;;;;;7.05;2.67;;;;;;;;;;6293469;28;20054;-61
2022/07/28 01:22:08;;;;;;;6.68;2.90;;;;;;;;;;6295204;28;20055;-60
2022/07/28 01:25:38;;;;;;;6.75;3.08;;;;;;;;;;6288936;28;20048;-60
2022/07/28 01:29:07;;;;;;;5.88;2.95;;;;;;;;;;6293870;28;20071;-59
2022/07/28 01:32:32;;;;;;;6.53;3.13;;;;;;;;;;6292672;28;20070;-60
2022/07/28 01:35:42;;;;;;;7.18;3.10;;;;;;;;;;6295290;28;20063;-60
2022/07/28 01:38:46;;;;;;;7.00;3.35;;;;;;;;;;6289117;28;20051;-61
2022/07/28 01:41:48;;;;;;;6.68;3.25;;;;;;;;;;6297667;28;20040;-60
2022/07/28 01:44:52;;;;;;;8.23;3.10;;;;;;;;;;6289022;28;20052;-60
2022/07/28 01:47:55;;;;;;;7.82;3.22;;;;;;;;;;6293125;28;20109;-60
2022/07/28 01:50:57;;;;;;;9.95;3.33;;;;;;;;;;6290954;28;20054;-60
2022/07/28 01:53:59;;;;;;;9.43;3.53;;;;;;;;;;6292803;28;20103;-61
2022/07/28 01:57:01;;;;;;;9.27;3.35;;;;;;;;;;6295070;28;20313;-61
2022/07/28 02:00:05;;;;;;;7.63;3.30;;;;;;;;;;6291246;28;20048;-61
2022/07/28 02:03:07;;;;;;;8.77;3.08;;;;;;;;;;6290395;28;20048;-60
2022/07/28 02:06:09;;;;;;;7.70;3.10;;;;;;;;;;6290540;28;20059;-61
2022/07/28 02:09:11;;;;;;;7.97;3.40;;;;;;;;;;6292502;28;22335;-60
2022/07/28 02:12:17;;;;;;;6.70;3.03;;;;;;;;;;6294319;28;20036;-61
2022/07/28 02:15:20;;;;;;;7.63;3.10;;;;;;;;;;6293328;28;20051;-61
2022/07/28 02:18:22;;;;;;;8.05;3.15;;;;;;;;;;6294613;28;20406;-61
2022/07/28 02:21:24;;;;;;;7.00;2.65;;;;;;;;;;6291956;28;20066;-61
2022/07/28 02:24:27;;;;;;;5.63;2.90;;;;;;;;;;6291550;28;20098;-61
2022/07/28 02:27:46;;;;;;;6.13;2.80;;;;;;;;;;6292779;28;20096;-61
2022/07/28 02:31:11;;;;;;;7.72;3.15;;;;;;;;;;6289988;28;20458;-61
2022/07/28 02:34:15;;;;;;;6.90;3.20;;;;;;;;;;6288443;28;20044;-60
2022/07/28 02:37:17;;;;;;;8.52;3.33;;;;;;;;;;6293007;28;20045;-61
2022/07/28 02:40:20;;;;;;;7.55;3.20;;;;;;;;;;6293063;28;20135;-61
2022/07/28 02:43:26;;;;;;;7.53;3.17;;;;;;;;;;6288866;28;21210;-61
2022/07/28 02:46:37;;;;;;;10.32;3.35;;;;;;;;;;6289929;28;20059;-61
2022/07/28 02:49:39;;;;;;;8.77;3.53;;;;;;;;;;6292917;28;20257;-61
2022/07/28 02:52:42;;;;;;;8.15;3.05;;;;;;;;;;6293155;28;20052;-61
2022/07/28 02:55:46;;;;;;;8.20;3.22;;;;;;;;;;6291880;28;20781;-61
2022/07/28 02:58:47;;;;;;;10.85;3.55;;;;;;;;;;6293178;28;20072;-61
2022/07/28 03:01:49;;;;;;;9.02;3.75;;;;;;;;;;6292105;28;20071;-61
2022/07/28 03:04:57;;;;;;;5.57;3.05;;;;;;;;;;6293478;28;20159;-61
2022/07/28 03:07:58;;;;;;;9.70;3.35;;;;;;;;;;6292255;28;20428;-61
2022/07/28 03:11:10;;;;;;;7.67;3.20;;;;;;;;;;6295468;28;20438;-60
2022/07/28 03:14:10;;;;;;;7.82;3.25;;;;;;;;;;6294481;28;20083;-61
2022/07/28 03:17:11;;;;;;;10.20;3.83;;;;;;;;;;6296526;28;20086;-60
2022/07/28 03:20:12;;;;;;;8.10;3.30;;;;;;;;;;6298039;28;20062;-60
2022/07/28 03:23:13;;;;;;;6.80;2.85;;;;;;;;;;6299505;28;20052;-61
2022/07/28 03:26:29;;;;;;;8.40;3.10;;;;;;;;;;6296746;28;20127;-60
2022/07/28 03:29:31;;;;;;;9.15;3.38;;;;;;;;;;6295679;28;20043;-60
2022/07/28 03:32:34;;;;;;;8.48;3.33;;;;;;;;;;6296805;28;20138;-61
2022/07/28 03:35:38;;;;;;;7.95;3.42;;;;;;;;;;6294370;28;20048;-61
2022/07/28 03:38:50;;;;;;;7.47;3.25;;;;;;;;;;6293581;28;20466;-61
2022/07/28 03:41:51;;;;;;;9.77;3.40;;;;;;;;;;6301909;28;20055;-61
2022/07/28 03:44:52;;;;;;;6.60;3.40;;;;;;;;;;6296908;28;20036;-61
2022/07/28 03:47:55;;;;;;;8.85;3.38;;;;;;;;;;6296135;28;20052;-60
2022/07/28 03:50:56;;;;;;;6.50;2.50;;;;;;;;;;6294909;28;20048;-61
2022/07/28 03:53:57;;;;;;;7.95;3.30;;;;;;;;;;6297505;28;20044;-61
2022/07/28 03:56:57;;;;;;;9.35;2.92;;;;;;;;;;6293157;28;20121;-61
2022/07/28 03:59:58;;;;;;;9.70;3.22;;;;;;;;;;6293988;28;20044;-61
2022/07/28 04:02:59;;;;;;;9.17;3.30;;;;;;;;;;6297344;28;20050;-61
2022/07/28 04:05:59;;;;;;;8.32;3.53;;;;;;;;;;6296546;28;20094;-61
2022/07/28 04:09:00;;;;;;;9.13;3.80;;;;;;;;;;6291601;28;20045;-61
2022/07/28 04:12:00;;;;;;;7.93;3.30;;;;;;;;;;6295499;28;20586;-60
2022/07/28 04:15:01;;;;;;;9.53;3.60;;;;;;;;;;6296263;28;20044;-61
2022/07/28 04:18:02;;;;;;;6.70;4.00;;;;;;;;;;6295652;28;20043;-61
2022/07/28 04:21:03;;;;;;;9.32;3.88;;;;;;;;;;6298830;28;20063;-61
2022/07/28 04:24:04;;;;;;;7.77;4.20;;;;;;;;;;6294142;28;20489;-61
2022/07/28 04:27:05;;;;;;;10.67;5.80;;;;;;;;;;6299114;28;20036;-61
2022/07/28 04:30:11;;;;;;;13.25;6.53;;;;;;;;;;6297457;28;20489;-61
2022/07/28 04:33:12;;;;;;;11.68;4.60;;;;;;;;;;6298910;28;20089;-61
2022/07/28 04:36:13;;;;;;;13.65;4.60;;;;;;;;;;6296282;28;20040;-61
2022/07/28 04:39:14;;;;;;;13.32;5.10;;;;;;;;;;6294001;28;20727;-61
2022/07/28 04:42:15;;;;;;;13.57;4.47;;;;;;;;;;6297156;28;20040;-60
2022/07/28 04:45:15;;;;;;;12.18;4.47;;;;;;;;;;6298133;28;20052;-60
2022/07/28 04:48:16;;;;;;;13.48;5.18;;;;;;;;;;6299623;28;20791;-59
2022/07/28 04:51:17;;;;;;;13.68;5.15;;;;;;;;;;6292787;28;20051;-60
2022/07/28 04:54:18;;;;;;;14.77;6.15;;;;;;;;;;6292203;28;20741;-60
2022/07/28 04:57:18;;;;;;;15.18;9.02;;;;;;;;;;6294487;28;20090;-61
2022/07/28 05:00:20;;;;;;;10.67;4.90;;;;;;;;;;6295791;28;20079;-61
2022/07/28 05:03:21;;;;;;;10.70;4.25;;;;;;;;;;6292501;28;20666;-61
2022/07/28 05:06:21;;;;;;;8.57;3.97;;;;;;;;;;6295127;28;20059;-61
2022/07/28 05:09:22;;;;;;;12.53;4.00;;;;;;;;;;6294886;28;20047;-61
2022/07/28 05:12:23;;;;;;;8.17;3.33;;;;;;;;;;6296362;28;21178;-61
2022/07/28 05:15:23;;;;;;;9.53;4.30;;;;;;;;;;6293176;28;20048;-61
2022/07/28 05:18:24;;;;;;;9.07;3.90;;;;;;;;;;6291151;28;20064;-61
2022/07/28 05:21:24;;;;;;;11.13;3.83;;;;;;;;;;6296727;28;20040;-61
2022/07/28 05:24:25;;;;;;;7.45;3.50;;;;;;;;;;6291098;28;20076;-61
2022/07/28 05:27:25;;;;;;;7.77;3.43;;;;;;;;;;6294501;28;20052;-61
2022/07/28 05:30:26;;;;;;;7.43;3.87;;;;;;;;;;6295189;28;20055;-61
2022/07/28 05:33:27;;;;;;;6.77;3.40;;;;;;;;;;6293865;28;20055;-61
2022/07/28 05:36:28;;;;;;;10.52;4.38;;;;;;;;;;6299686;28;20047;-61
2022/07/28 05:39:31;;;;;;;8.20;3.23;;;;;;;;;;6292984;28;20053;-61
2022/07/28 05:42:34;;;;;;;10.32;3.08;;;;;;;;;;6294648;28;20174;-61
2022/07/28 05:45:35;;;;;;;8.25;3.10;;;;;;;;;;6296604;28;20056;-61
2022/07/28 05:48:35;;;;;;;9.75;3.85;;;;;;;;;;6302790;28;20053;-61
2022/07/28 05:51:36;;;;;;;10.23;3.17;;;;;;;;;;6300159;28;20048;-61
2022/07/28 05:54:37;;;;;;;6.87;2.77;;;;;;;;;;6298774;28;20044;-61
2022/07/28 05:57:38;;;;;;;10.52;3.50;;;;;;;;;;6302876;28;20055;-61
2022/07/28 06:00:39;;;;;;;11.07;3.38;;;;;;;;;;6301194;28;20479;-61
2022/07/28 06:03:39;;;;;;;7.30;3.20;;;;;;;;;;6297647;28;20040;-60
2022/07/28 06:06:40;;;;;;;10.10;3.10;;;;;;;;;;6305244;28;20077;-61
2022/07/28 06:09:40;;;;;;;9.03;3.07;;;;;;;;;;6298804;28;20044;-60
2022/07/28 06:12:43;;;;;;;8.53;2.40;;;;;;;;;;6306243;28;20143;-61
2022/07/28 06:15:46;;;;;;;5.22;2.97;;;;;;;;;;6299553;28;20140;-61
2022/07/28 06:18:47;;;;;;;7.20;2.80;;;;;;;;;;6291481;28;20044;-61
2022/07/28 06:21:51;;;;;;;5.85;2.78;;;;;;;;;;6300979;28;20138;-60
2022/07/28 06:24:51;;;;;;;6.53;2.70;;;;;;;;;;6297021;28;20052;-60
2022/07/28 06:27:57;;;;;;;6.60;2.50;;;;;;;;;;6297873;28;20044;-60
2022/07/28 06:30:57;;;;;;;6.03;2.50;;;;;;;;;;6297851;28;20044;-60
2022/07/28 06:33:58;;;;;;;8.87;2.60;;;;;;;;;;6298215;28;20048;-60
2022/07/28 06:36:59;;;;;;;8.77;2.60;;;;;;;;;;6301176;28;20049;-60
2022/07/28 06:39:59;;;;;;;5.73;3.00;;;;;;;;;;6299497;28;20484;-59
2022/07/28 06:43:00;;;;;;;6.83;2.50;;;;;;;;;;6306614;28;20043;-60
2022/07/28 06:46:01;;;;;;;6.67;2.50;;;;;;;;;;6306199;28;20044;-60
2022/07/28 06:49:03;;;;;;;6.77;2.77;;;;;;;;;;6299894;28;20040;-61
2022/07/28 06:52:04;;;;;;;5.60;2.55;;;;;;;;;;6296236;28;20044;-60
2022/07/28 06:55:05;;;;;;;5.73;2.30;;;;;;;;;;6295213;28;20144;-61
2022/07/28 06:58:06;;;;;;;6.73;2.30;;;;;;;;;;6310923;28;20055;-61
2022/07/28 07:01:07;;;;;;;5.93;2.70;;;;;;;;;;6295487;28;20305;-59
2022/07/28 07:04:08;;;;;;;6.60;2.30;;;;;;;;;;6306088;28;20048;-59
2022/07/28 07:07:08;;;;;;;4.70;2.10;;;;;;;;;;6307284;28;20094;-60
2022/07/28 07:10:10;;;;;;;5.60;2.27;;;;;;;;;;6302674;28;20059;-60
2022/07/28 07:13:10;;;;;;;7.60;2.33;;;;;;;;;;6305629;28;20135;-60
2022/07/28 07:16:11;;;;;;;7.23;2.13;;;;;;;;;;6305909;28;20044;-60
2022/07/28 07:19:11;;;;;;;7.10;2.30;;;;;;;;;;6300450;28;20052;-60
2022/07/28 07:22:13;;;;;;;5.53;2.07;;;;;;;;;;6297849;28;20048;-60
2022/07/28 07:25:16;;;;;;;4.65;2.00;;;;;;;;;;6293168;28;20139;-61
2022/07/28 07:28:17;;;;;;;6.10;2.20;;;;;;;;;;6295065;28;20068;-61
2022/07/28 07:31:17;;;;;;;5.27;2.10;;;;;;;;;;6293630;28;20055;-61
2022/07/28 07:34:18;;;;;;;4.30;1.93;;;;;;;;;;6301069;28;20044;-71
2022/07/28 07:37:20;;;;;;;8.27;2.30;;;;;;;;;;6307006;28;20047;-61
2022/07/28 07:40:20;;;;;;;4.82;2.08;;;;;;;;;;6303628;28;20044;-60
2022/07/28 07:43:21;;;;;;;6.27;1.83;;;;;;;;;;6298527;28;20113;-60
2022/07/28 07:46:21;;;;;;;7.50;1.90;;;;;;;;;;6302009;28;20035;-62
2022/07/28 07:49:22;;;;;;;4.53;1.93;;;;;;;;;;6292142;28;20044;-61
2022/07/28 07:52:22;;;;;;;4.27;1.90;;;;;;;;;;6301777;28;20055;-61
2022/07/28 07:55:23;;;;;;;5.93;1.77;;;;;;;;;;6301907;28;20484;-61
2022/07/28 07:58:24;;;;;;;3.93;1.63;;;;;;;;;;6312263;28;20067;-60
2022/07/28 08:01:24;;;;;;;4.00;1.90;;;;;;;;;;6299231;28;20446;-61
2022/07/28 08:04:25;;;;;;;8.60;2.37;;;;;;;;;;6293616;28;20052;-61
2022/07/28 08:07:26;;;;;;;5.47;2.07;;;;;;;;;;6295813;28;20178;-60
2022/07/28 08:10:26;;;;;;;5.67;2.20;;;;;;;;;;6300213;28;20046;-60
2022/07/28 08:13:27;;;;;;;5.77;1.90;;;;;;;;;;6299021;28;20063;-60
2022/07/28 08:16:27;;;;;;;6.80;2.20;;;;;;;;;;6312994;28;20054;-61
2022/07/28 08:19:28;;;;;;;7.30;2.23;;;;;;;;;;6304034;28;20060;-61
2022/07/28 08:22:29;;;;;;;6.57;2.30;;;;;;;;;;6304004;28;20048;-65
2022/07/28 08:25:29;;;;;;;7.13;2.30;;;;;;;;;;6294510;28;20076;-60
2022/07/28 08:28:30;;;;;;;7.67;2.40;;;;;;;;;;6299665;28;20364;-60
2022/07/28 08:31:31;;;;;;;5.57;2.33;;;;;;;;;;6306943;28;20140;-60
2022/07/28 08:34:32;;;;;;;10.80;2.60;;;;;;;;;;6299013;28;20097;-61
2022/07/28 08:37:33;;;;;;;7.75;2.10;;;;;;;;;;6295132;28;20724;-62
2022/07/28 08:40:36;;;;;;;10.87;3.03;;;;;;;;;;6295387;28;20056;-62
2022/07/28 08:43:38;;;;;;;7.78;2.25;;;;;;;;;;6293940;28;20776;-61
2022/07/28 08:46:40;;;;;;;;;;;;;;;;;;6296862;28;20137;-61
2022/07/28 08:49:42;;;;;;;6.17;2.50;;;;;;;;;;6292498;28;19930;-61
2022/07/28 08:52:44;;;;;;;5.80;2.25;;;;;;;;;;6295838;28;20332;-61
2022/07/28 08:55:47;;;;;;;6.05;2.10;;;;;;;;;;6292473;28;20056;-61
2022/07/28 08:58:47;;;;;;;7.82;2.30;;;;;;;;;;6297040;28;20515;-61
2022/07/28 09:01:48;;;;;;;6.30;2.37;;;;;;;;;;6291213;28;20052;-62
2022/07/28 09:04:49;;;;;;;6.77;2.30;;;;;;;;;;6290399;28;20048;-62
2022/07/28 09:07:53;;;;;;;7.47;2.40;;;;;;;;;;6294061;28;20044;-62
2022/07/28 09:10:54;;;;;;;6.53;2.55;;;;;;;;;;6289878;28;20048;-61
2022/07/28 09:13:54;;;;;;;6.93;2.33;;;;;;;;;;6291386;28;20399;-61
2022/07/28 09:17:01;;;;;;;6.90;2.40;;;;;;;;;;6292592;28;20040;-62
2022/07/28 09:20:03;;;;;;;6.00;2.60;;;;;;;;;;6294589;28;20049;-62
2022/07/28 09:23:05;;;;;;;7.65;2.70;;;;;;;;;;6294359;28;20053;-61
2022/07/28 09:26:07;;;;;;;8.10;2.60;;;;;;;;;;6291001;28;20047;-61
2022/07/28 09:29:07;;;;;;;;;;;;;;;;;;6288763;28;20415;-61
2022/07/28 09:32:10;;;;;;;6.90;2.47;;;;;;;;;;6289827;28;19924;-61
2022/07/28 09:35:18;;;;;;;6.63;2.40;;;;;;;;;;6290639;28;20058;-61
2022/07/28 09:38:21;;;;;;;6.20;2.33;;;;;;;;;;6292903;28;20136;-61
2022/07/28 09:41:24;;;;;;;5.03;2.40;;;;;;;;;;6290835;28;20048;-61
2022/07/28 09:44:26;;;;;;;4.97;2.67;;;;;;;;;;6292193;28;20059;-61
2022/07/28 09:47:29;;;;;;;5.97;2.83;;;;;;;;;;6294006;28;20135;-61
2022/07/28 09:50:30;;;;;;;5.20;2.30;;;;;;;;;;6293827;28;20415;-61
2022/07/28 09:53:31;;;;;;;5.03;2.50;;;;;;;;;;6295640;28;20055;-61
2022/07/28 09:56:32;;;;;;;8.13;2.40;;;;;;;;;;6293592;28;20060;-61
2022/07/28 09:59:42;;;;;;;7.75;2.60;;;;;;;;;;6296162;28;20419;-60
2022/07/28 10:02:48;;;;;;;4.90;2.80;;;;;;;;;;6301248;28;20059;-59
2022/07/28 10:05:49;;;;;;;5.60;2.90;;;;;;;;;;6296362;28;20058;-60
2022/07/28 10:08:51;;;;;;;8.87;2.63;;;;;;;;;;6295071;28;20048;-60
2022/07/28 10:11:51;;;;;;;;;;;;;;;;;;6301441;28;20139;-60
2022/07/28 10:14:54;;;;;;;9.20;3.13;;;;;;;;;;6302248;28;19920;-60
2022/07/28 10:17:55;;;;;;;5.65;2.70;;;;;;;;;;6301050;28;20047;-60
2022/07/28 10:20:56;;;;;;;5.22;2.40;;;;;;;;;;6296583;28;20045;-60
2022/07/28 10:24:04;;;;;;;4.40;2.63;;;;;;;;;;6297432;28;20044;-60
2022/07/28 10:27:06;;;;;;;5.88;2.75;;;;;;;;;;6303375;28;20041;-60
2022/07/28 10:30:07;;;;;;;;;;;;;;;;;;6291991;28;20052;-60
2022/07/28 10:33:13;;;;;;;5.47;2.45;;;;;;;;;;6299393;28;20022;-60
2022/07/28 10:36:17;;;;;;;7.25;2.90;;;;;;;;;;6304395;28;20214;-60
2022/07/28 10:39:20;;;;;;;6.28;2.88;;;;;;;;;;6304243;28;20052;-60
2022/07/28 10:42:21;;;;;;;6.07;2.42;;;;;;;;;;6297981;28;20056;-61
2022/07/28 10:45:22;;;;;;;4.87;2.47;;;;;;;;;;6297026;28;20044;-60
2022/07/28 10:48:22;;;;;;;7.75;2.80;;;;;;;;;;6302376;28;20051;-60
2022/07/28 10:51:24;;;;;;;7.33;2.97;;;;;;;;;;6301688;28;20308;-66
2022/07/28 10:54:28;;;;;;;7.93;3.33;;;;;;;;;;6298639;28;20045;-62
2022/07/28 10:57:30;;;;;;;5.97;2.72;;;;;;;;;;6301607;28;20713;-62
2022/07/28 11:00:34;;;;;;;6.00;3.10;;;;;;;;;;6305210;28;20040;-61
2022/07/28 11:03:38;;;;;;;6.55;2.95;;;;;;;;;;6299763;28;20543;-59
2022/07/28 11:06:40;;;;;;;6.82;2.90;;;;;;;;;;6301082;28;20140;-61
2022/07/28 11:09:42;;;;;;;6.97;3.40;;;;;;;;;;6301125;28;20075;-61
2022/07/28 11:12:53;;;;;;;6.85;3.30;;;;;;;;;;6301651;28;20040;-60
2022/07/28 11:15:56;;;;;;;4.60;2.90;;;;;;;;;;6304345;28;20102;-61
2022/07/28 11:19:07;;;;;;;5.35;3.13;;;;;;;;;;6303621;28;20449;-61
2022/07/28 11:22:17;;;;;;;6.45;2.83;;;;;;;;;;6297953;28;20142;-60
2022/07/28 11:25:19;;;;;;;5.95;3.20;;;;;;;;;;6293850;28;20052;-61
2022/07/28 11:28:19;;;;;;;;;;;;;;;;;;6300379;28;20182;-60
2022/07/28 11:31:43;;;;;;;6.77;3.23;;;;;;;;;;6303107;28;19927;-59
2022/07/28 11:35:05;;;;;;;7.95;2.85;;;;;;;;;;6293231;28;20527;-60
2022/07/28 11:38:07;;;;;;;6.28;2.80;;;;;;;;;;6295800;28;20102;-61
2022/07/28 11:41:28;;;;;;;6.30;3.00;;;;;;;;;;6292356;28;20101;-60
2022/07/28 11:44:31;;;;;;;6.35;2.95;;;;;;;;;;6290925;28;20090;-60
2022/07/28 11:47:31;;;;;;;6.40;2.90;;;;;;;;;;6293793;28;20621;-61
2022/07/28 11:50:33;;;;;;;8.23;3.03;;;;;;;;;;6291083;28;20053;-60
2022/07/28 11:53:50;;;;;;;4.90;2.95;;;;;;;;;;6299963;28;20052;-60
2022/07/28 11:56:57;;;;;;;5.85;2.95;;;;;;;;;;6292782;28;20059;-61
2022/07/28 11:59:59;;;;;;;7.65;3.13;;;;;;;;;;6297248;28;20139;-61
2022/07/28 12:03:04;;;;;;;10.52;3.65;;;;;;;;;;6295618;28;20407;-61
2022/07/28 12:06:05;;;;;;;8.65;3.33;;;;;;;;;;6299428;28;20052;-61
2022/07/28 12:09:07;;;;;;;6.05;3.00;;;;;;;;;;6297182;28;20166;-60
2022/07/28 12:12:08;;;;;;;5.80;3.08;;;;;;;;;;6299157;28;20147;-61
2022/07/28 12:15:13;;;;;;;6.20;2.90;;;;;;;;;;6293781;28;20040;-61
2022/07/28 12:18:14;;;;;;;5.63;2.78;;;;;;;;;;6300862;28;20143;-60
2022/07/28 12:21:15;;;;;;;7.40;3.17;;;;;;;;;;6306797;28;20049;-60
2022/07/28 12:24:28;;;;;;;7.63;3.07;;;;;;;;;;6297778;28;20071;-61
2022/07/28 12:27:29;;;;;;;8.43;3.17;;;;;;;;;;6300551;28;20448;-60
2022/07/28 12:30:31;;;;;;;9.10;3.40;;;;;;;;;;6301454;28;20076;-61
2022/07/28 12:33:31;;;;;;;7.68;3.25;;;;;;;;;;6298016;28;20312;-60
2022/07/28 12:36:33;;;;;;;7.80;3.40;;;;;;;;;;6297871;28;20048;-61
2022/07/28 12:39:37;;;;;;;7.05;3.00;;;;;;;;;;6302359;28;20056;-61
2022/07/28 12:42:37;;;;;;;6.75;3.25;;;;;;;;;;6300150;28;20505;-61
2022/07/28 12:45:44;;;;;;;5.67;3.00;;;;;;;;;;6295720;28;20056;-60
2022/07/28 12:48:47;;;;;;;7.15;2.90;;;;;;;;;;6301348;28;20681;-61
2022/07/28 12:51:48;;;;;;;7.18;3.08;;;;;;;;;;6294851;28;20048;-60
2022/07/28 12:54:51;;;;;;;5.18;3.03;;;;;;;;;;6297935;28;20037;-61
2022/07/28 12:57:51;;;;;;;5.50;2.80;;;;;;;;;;6292646;28;20416;-61
2022/07/28 13:00:53;;;;;;;17.20;3.63;;;;;;;;;;6302059;28;20043;-61
2022/07/28 13:03:53;;;;;;;4.68;2.83;;;;;;;;;;6299753;28;20094;-61
2022/07/28 13:06:55;;;;;;;5.73;3.03;;;;;;;;;;6302474;28;20485;-61
2022/07/28 13:10:09;;;;;;;7.00;3.30;;;;;;;;;;6299910;28;20063;-61
2022/07/28 13:13:10;;;;;;;8.40;3.00;;;;;;;;;;6298247;28;20154;-61
2022/07/28 13:16:19;;;;;;;5.67;3.37;;;;;;;;;;6298417;28;20044;-61
2022/07/28 13:19:20;;;;;;;6.50;2.92;;;;;;;;;;6295769;28;20075;-61
2022/07/28 13:22:25;;;;;;;7.13;3.30;;;;;;;;;;6307073;28;20165;-61
2022/07/28 13:25:26;;;;;;;5.57;3.25;;;;;;;;;;6288780;28;20039;-61
2022/07/28 13:28:27;;;;;;;5.73;3.13;;;;;;;;;;6298467;28;20385;-62
2022/07/28 13:31:27;;;;;;;7.53;3.22;;;;;;;;;;6300698;28;20055;-61
2022/07/28 13:34:28;;;;;;;8.03;2.70;;;;;;;;;;6298387;28;20038;-60
2022/07/28 13:37:28;;;;;;;5.13;3.30;;;;;;;;;;6292893;28;20050;-61
2022/07/28 13:40:29;;;;;;;6.57;3.03;;;;;;;;;;6293793;28;20044;-61
2022/07/28 13:43:29;;;;;;;6.93;3.50;;;;;;;;;;6292113;28;20040;-61
2022/07/28 13:46:30;;;;;;;8.20;3.57;;;;;;;;;;6295003;28;20395;-61
2022/07/28 13:49:32;;;;;;;6.63;3.43;;;;;;;;;;6292797;28;20050;-61
2022/07/28 13:52:33;;;;;;;6.10;3.30;;;;;;;;;;6294033;28;20335;-61
2022/07/28 13:55:35;;;;;;;8.37;4.00;;;;;;;;;;6290851;28;20577;-62
2022/07/28 13:58:36;;;;;;;6.40;3.00;;;;;;;;;;6291555;28;20060;-61
2022/07/28 14:01:37;;;;;;;6.07;3.40;;;;;;;;;;6301259;28;20512;-61
2022/07/28 14:04:38;;;;;;;6.60;3.30;;;;;;;;;;6296278;28;20048;-61
2022/07/28 14:07:38;;;;;;;5.72;3.13;;;;;;;;;;6295648;28;20748;-61
2022/07/28 14:10:39;;;;;;;5.73;3.33;;;;;;;;;;6295554;28;20071;-61
2022/07/28 14:13:40;;;;;;;6.45;3.10;;;;;;;;;;6290708;28;20048;-61
2022/07/28 14:16:43;;;;;;;5.10;3.63;;;;;;;;;;6300344;28;20484;-60
2022/07/28 14:19:44;;;;;;;7.47;3.47;;;;;;;;;;6299466;28;20073;-61
2022/07/28 14:22:44;;;;;;;5.70;3.30;;;;;;;;;;6301751;28;20044;-61
2022/07/28 14:25:45;;;;;;;6.20;3.40;;;;;;;;;;6291355;28;20111;-61
2022/07/28 14:28:45;;;;;;;6.30;3.00;;;;;;;;;;6294794;28;20044;-60
2022/07/28 14:31:46;;;;;;;5.55;3.40;;;;;;;;;;6290708;28;20053;-61
2022/07/28 14:34:47;;;;;;;5.00;3.53;;;;;;;;;;6297318;28;20414;-61
2022/07/28 14:37:47;;;;;;;7.87;3.30;;;;;;;;;;6297408;28;20052;-61
2022/07/28 14:40:48;;;;;;;4.97;3.17;;;;;;;;;;6299131;28;20044;-60
2022/07/28 14:43:49;;;;;;;7.47;3.20;;;;;;;;;;6289660;28;20056;-60
2022/07/28 14:46:49;;;;;;;8.00;3.87;;;;;;;;;;6294053;28;20064;-59
2022/07/28 14:49:50;;;;;;;8.50;3.47;;;;;;;;;;6293270;28;20582;-60
2022/07/28 14:52:51;;;;;;;8.53;3.47;;;;;;;;;;6295899;28;20500;-60
2022/07/28 14:55:51;;;;;;;7.28;4.00;;;;;;;;;;6291484;28;20159;-60
2022/07/28 14:58:52;;;;;;;7.97;3.97;;;;;;;;;;6302244;28;20052;-60
2022/07/28 15:01:52;;;;;;;5.20;3.43;;;;;;;;;;6296843;28;20106;-60
2022/07/28 15:04:53;;;;;;;6.23;3.57;;;;;;;;;;6294663;28;20307;-61
2022/07/28 15:07:53;;;;;;;4.67;3.10;;;;;;;;;;6300154;28;20178;-60
2022/07/28 15:10:54;;;;;;;8.23;3.37;;;;;;;;;;6302478;28;20067;-60
2022/07/28 15:13:54;;;;;;;15.40;9.50;;;;;;;;;;6293311;28;20041;-61
2022/07/28 15:16:55;;;;;;;8.33;4.30;;;;;;;;;;6310808;28;20355;-60
2022/07/28 15:19:56;;;;;;;8.77;3.73;;;;;;;;;;6313831;28;20044;-60
2022/07/28 15:22:56;;;;;;;7.38;3.60;;;;;;;;;;6302280;28;20483;-60
2022/07/28 15:25:57;;;;;;;6.87;3.90;;;;;;;;;;6299946;28;20044;-62
2022/07/28 15:28:58;;;;;;;8.80;3.53;;;;;;;;;;6297124;28;20106;-60
2022/07/28 15:31:59;;;;;;;5.53;3.57;;;;;;;;;;6297375;28;20064;-60
2022/07/28 15:35:00;;;;;;;;;;;;;;;;;;6300870;28;20632;-59
2022/07/28 15:38:01;;;;;;;8.82;4.20;;;;;;;;;;6310024;28;19920;-60
2022/07/28 15:41:02;;;;;;;8.63;3.60;;;;;;;;;;6302081;28;20518;-60
2022/07/28 15:44:03;;;;;;;5.55;3.45;;;;;;;;;;6301861;28;20475;-60
2022/07/28 15:47:04;;;;;;;8.00;3.57;;;;;;;;;;6309134;28;20109;-60
2022/07/28 15:50:05;;;;;;;9.35;4.35;;;;;;;;;;6297102;28;20410;-60
2022/07/28 15:53:05;;;;;;;7.43;3.53;;;;;;;;;;6303785;28;20052;-60
2022/07/28 15:56:06;;;;;;;7.80;3.33;;;;;;;;;;6305361;28;20319;-61
2022/07/28 15:59:07;;;;;;;7.60;3.20;;;;;;;;;;6298489;28;20099;-60
2022/07/28 16:02:07;;;;;;;7.63;3.50;;;;;;;;;;6303455;28;20134;-61
2022/07/28 16:05:08;;;;;;;4.40;3.00;;;;;;;;;;6301375;28;20044;-61
2022/07/28 16:08:09;;;;;;;5.38;3.20;;;;;;;;;;6317099;28;20049;-60
2022/07/28 16:11:10;;;;;;;7.63;3.30;;;;;;;;;;6308463;28;20059;-60
2022/07/28 16:14:11;;;;;;;5.65;3.33;;;;;;;;;;6298267;28;20142;-60
2022/07/28 16:17:11;;;;;;;6.73;3.30;;;;;;;;;;6294474;28;20048;-61
2022/07/28 16:20:12;;;;;;;6.05;2.83;;;;;;;;;;6300064;28;20657;-60
2022/07/28 16:23:13;;;;;;;7.43;3.37;;;;;;;;;;6315334;28;20055;-60
2022/07/28 16:26:13;;;;;;;6.22;3.60;;;;;;;;;;6314366;28;20544;-60
2022/07/28 16:29:14;;;;;;;5.97;3.20;;;;;;;;;;6299746;28;20044;-68
2022/07/28 16:32:15;;;;;;;8.20;3.47;;;;;;;;;;6311306;28;20052;-60
2022/07/28 16:35:16;;;;;;;6.10;3.63;;;;;;;;;;6294593;28;20060;-60
2022/07/28 16:38:17;;;;;;;5.78;3.60;;;;;;;;;;6298079;28;20040;-60
2022/07/28 16:41:17;;;;;;;6.00;3.63;;;;;;;;;;6299607;28;20052;-59
2022/07/28 16:44:18;;;;;;;6.90;3.33;;;;;;;;;;6295137;28;20047;-60
2022/07/28 16:47:19;;;;;;;6.20;3.40;;;;;;;;;;6293742;28;20491;-60
2022/07/28 16:50:22;;;;;;;5.88;3.03;;;;;;;;;;6301868;28;20051;-60
2022/07/28 16:53:23;;;;;;;5.60;3.10;;;;;;;;;;6296212;28;20414;-61
2022/07/28 16:56:24;;;;;;;5.28;3.15;;;;;;;;;;6297881;28;20082;-60
2022/07/28 16:59:24;;;;;;;9.50;3.33;;;;;;;;;;6298602;28;20052;-60
2022/07/28 17:02:25;;;;;;;6.72;3.28;;;;;;;;;;6297277;28;20056;-60
2022/07/28 17:05:25;;;;;;;4.90;2.83;;;;;;;;;;6294096;28;20037;-60
2022/07/28 17:08:26;;;;;;;9.05;3.80;;;;;;;;;;6295535;28;20040;-60
2022/07/28 17:11:27;;;;;;;5.60;3.30;;;;;;;;;;6293861;28;20044;-60
2022/07/28 17:14:27;;;;;;;33.47;24.73;;;;;;;;;;6295119;28;20055;-60
2022/07/28 17:17:28;;;;;;;69.67;47.50;;;;;;;;;;6294694;28;20052;-60
2022/07/28 17:20:29;;;;;;;29.50;20.73;;;;;;;;;;6294650;28;20049;-60
2022/07/28 17:23:29;;;;;;;27.38;17.77;;;;;;;;;;6292893;28;20342;-60
2022/07/28 17:26:30;;;;;;;6.53;3.55;;;;;;;;;;6295394;28;20132;-62
2022/07/28 17:29:31;;;;;;;6.10;3.50;;;;;;;;;;6304792;28;20036;-59
2022/07/28 17:32:32;;;;;;;10.38;7.38;;;;;;;;;;6302213;28;20040;-60
2022/07/28 17:35:33;;;;;;;9.02;4.55;;;;;;;;;;6304342;28;20232;-60
2022/07/28 17:38:33;;;;;;;6.60;3.65;;;;;;;;;;6309022;28;20052;-59
2022/07/28 17:41:34;;;;;;;6.47;3.13;;;;;;;;;;6298206;28;20087;-60
2022/07/28 17:44:35;;;;;;;8.40;3.92;;;;;;;;;;6299681;28;20139;-60
2022/07/28 17:47:35;;;;;;;7.72;3.45;;;;;;;;;;6307175;28;20135;-59
2022/07/28 17:50:36;;;;;;;6.47;3.20;;;;;;;;;;6301410;28;20048;-60
2022/07/28 17:53:37;;;;;;;6.50;3.70;;;;;;;;;;6298437;28;20067;-63
2022/07/28 17:56:38;;;;;;;7.57;3.20;;;;;;;;;;6305100;28;20043;-60
2022/07/28 17:59:38;;;;;;;7.28;3.55;;;;;;;;;;6298422;28;20044;-60
2022/07/28 18:02:39;;;;;;;8.30;3.60;;;;;;;;;;6308852;28;20124;-59
2022/07/28 18:05:41;;;;;;;6.10;3.40;;;;;;;;;;6301965;28;20289;-59
2022/07/28 18:08:42;;;;;;;6.80;3.95;;;;;;;;;;6310412;28;20515;-60
2022/07/28 18:11:43;;;;;;;10.20;5.07;;;;;;;;;;6308258;28;20040;-61
2022/07/28 18:14:44;;;;;;;7.43;3.53;;;;;;;;;;6307017;28;20052;-60